Time;durP1;ratioP1;P1;durP2;ratioP2;P2;SDS_P1;SDS_P2;PMS_P1;PMS_P2;Temp;Humidity;BMP_temperature;BMP_pressure;BME280_temperature;BME280_humidity;BME280_pressure;Samples;Min_cycle;Max_cycle;Signal;HPM_P1;HPM_P2
2022/12/24 00:01:36;;;;;;;30.10;8.77;;;12.60;99.90;;;;;;5032256;28;20488;-62
2022/12/24 00:04:05;;;;;;;19.80;7.00;;;12.60;99.90;;;;;;5037036;28;20576;-62
2022/12/24 00:06:31;;;;;;;30.57;7.80;;;12.60;99.90;;;;;;5034754;28;20510;-62
2022/12/24 00:08:58;;;;;;;16.00;4.93;;;12.60;99.90;;;;;;5035151;28;20487;-62
2022/12/24 00:11:25;;;;;;;29.47;7.43;;;12.60;99.90;;;;;;5034062;28;20716;-63
2022/12/24 00:13:52;;;;;;;48.57;10.70;;;;;;;;;;5057511;28;20492;-61
2022/12/24 00:16:18;;;;;;;25.57;6.87;;;12.50;99.90;;;;;;5033953;28;20479;-62
2022/12/24 00:18:45;;;;;;;43.70;10.80;;;12.60;99.90;;;;;;5025798;28;20471;-62
2022/12/24 00:21:13;;;;;;;30.33;8.27;;;12.50;99.90;;;;;;5012913;28;20671;-62
2022/12/24 00:23:40;;;;;;;43.60;10.40;;;12.40;99.90;;;;;;5017416;28;20820;-62
2022/12/24 00:26:07;;;;;;;25.20;7.07;;;12.50;99.90;;;;;;5017064;28;20614;-63
2022/12/24 00:28:34;;;;;;;41.87;8.53;;;12.50;99.90;;;;;;5018710;28;20893;-62
2022/12/24 00:31:07;;;;;;;23.37;5.70;;;12.50;99.90;;;;;;5014271;28;20477;-62
2022/12/24 00:33:34;;;;;;;53.70;11.70;;;12.50;99.90;;;;;;5017074;28;20485;-61
2022/12/24 00:36:00;;;;;;;36.73;6.90;;;12.50;99.90;;;;;;5016527;28;20485;-61
2022/12/24 00:38:28;;;;;;;29.90;8.13;;;12.50;99.90;;;;;;5017819;28;20473;-62
2022/12/24 00:40:58;;;;;;;46.43;7.83;;;12.50;99.90;;;;;;5015865;28;20575;-62
2022/12/24 00:43:25;;;;;;;59.70;9.17;;;12.40;99.90;;;;;;5014934;28;20839;-62
2022/12/24 00:45:52;;;;;;;51.37;9.80;;;12.40;99.90;;;;;;5015239;28;20559;-62
2022/12/24 00:48:18;;;;;;;32.23;6.43;;;12.40;99.90;;;;;;5015799;28;20485;-62
2022/12/24 00:50:45;;;;;;;44.80;10.20;;;;;;;;;;5011218;28;20535;-62
2022/12/24 00:53:12;;;;;;;33.07;8.93;;;12.40;99.90;;;;;;5014589;28;20481;-62
2022/12/24 00:55:40;;;;;;;38.50;8.70;;;12.40;99.90;;;;;;5016882;28;20481;-62
2022/12/24 00:58:07;;;;;;;42.13;6.63;;;12.40;99.90;;;;;;5013046;28;21180;-62
2022/12/24 01:00:34;;;;;;;28.90;7.40;;;12.30;99.90;;;;;;5012455;28;21113;-62
2022/12/24 01:03:00;;;;;;;34.27;7.80;;;12.30;99.90;;;;;;5013152;28;20497;-62
2022/12/24 01:05:26;;;;;;;40.03;7.97;;;12.30;99.90;;;;;;5015364;28;20871;-61
2022/12/24 01:07:53;;;;;;;43.30;10.30;;;12.30;99.90;;;;;;5026566;28;20476;-62
2022/12/24 01:10:20;;;;;;;32.63;8.80;;;12.30;99.90;;;;;;5020458;28;20680;-62
2022/12/24 01:12:48;;;;;;;68.53;13.10;;;12.30;99.90;;;;;;5012641;28;20469;-62
2022/12/24 01:15:15;;;;;;;32.77;7.90;;;12.80;99.90;;;;;;5012622;28;20485;-62
2022/12/24 01:17:42;;;;;;;61.53;13.60;;;;;;;;;;5013019;28;20480;-62
2022/12/24 01:20:13;;;;;;;32.83;8.23;;;12.20;99.90;;;;;;5016245;28;20504;-62
2022/12/24 01:22:40;;;;;;;51.87;11.70;;;12.20;99.90;;;;;;5025656;28;20583;-62
2022/12/24 01:25:07;;;;;;;29.43;7.77;;;12.20;99.90;;;;;;5012181;28;20477;-62
2022/12/24 01:27:34;;;;;;;28.93;5.63;;;12.20;99.90;;;;;;5017510;28;20480;-62
2022/12/24 01:30:02;;;;;;;28.80;9.00;;;12.20;99.90;;;;;;5011491;28;20753;-62
2022/12/24 01:32:28;;;;;;;38.50;10.90;;;12.10;99.90;;;;;;5025645;28;20484;-62
2022/12/24 01:34:55;;;;;;;29.13;6.63;;;12.10;99.90;;;;;;5017414;28;20469;-62
2022/12/24 01:37:22;;;;;;;29.30;9.40;;;12.00;99.90;;;;;;5013383;28;21936;-62
2022/12/24 01:39:49;;;;;;;48.90;12.53;;;12.10;99.90;;;;;;5012987;28;20480;-62
2022/12/24 01:45:40;;;;;;;25.43;7.77;;;12.10;99.90;;;;;;5014262;28;20876;-62
2022/12/24 01:48:15;;;;;;;18.93;6.37;;;12.10;99.90;;;;;;5022889;28;20563;-61
2022/12/24 01:50:42;;;;;;;38.77;9.97;;;12.00;99.90;;;;;;5010183;28;21232;-62
2022/12/24 01:53:11;;;;;;;29.50;8.37;;;12.00;99.90;;;;;;5038885;28;21051;-62
2022/12/24 01:55:38;;;;;;;41.97;11.30;;;12.00;99.90;;;;;;5011432;28;20571;-62
2022/12/24 01:58:06;;;;;;;27.17;6.93;;;12.00;99.90;;;;;;5013614;28;20829;-62
2022/12/24 02:00:34;;;;;;;34.40;9.50;;;12.00;99.90;;;;;;5012017;28;20564;-62
2022/12/24 02:03:01;;;;;;;29.67;7.83;;;10.90;99.90;;;;;;5019122;28;20543;-62
2022/12/24 02:05:33;;;;;;;26.43;6.40;;;12.00;99.90;;;;;;5001288;28;20477;-62
2022/12/24 02:08:02;;;;;;;27.77;7.20;;;12.00;99.90;;;;;;5024238;28;20721;-62
2022/12/24 02:10:28;;;;;;;35.77;8.53;;;12.00;99.90;;;;;;5012519;28;20481;-62
2022/12/24 02:12:56;;;;;;;28.90;8.03;;;12.00;99.90;;;;;;5019231;28;20493;-62
2022/12/24 02:15:24;;;;;;;22.23;5.87;;;12.00;99.90;;;;;;5013022;28;20473;-63
2022/12/24 02:18:02;;;;;;;39.70;11.43;;;11.90;99.90;;;;;;5024940;28;20480;-62
2022/12/24 02:20:49;;;;;;;25.77;9.07;;;11.90;99.90;;;;;;5016456;28;20977;-62
2022/12/24 02:23:41;;;;;;;28.30;7.07;;;11.90;99.90;;;;;;5011961;28;21204;-62
2022/12/24 02:26:24;;;;;;;25.43;6.80;;;12.00;99.90;;;;;;5015720;28;20485;-62
2022/12/24 02:29:13;;;;;;;41.13;11.43;;;11.90;99.90;;;;;;5018027;28;21019;-62
2022/12/24 02:31:45;;;;;;;37.03;10.07;;;11.90;99.90;;;;;;5034782;28;20492;-62
2022/12/24 02:34:18;;;;;;;16.17;7.07;;;11.90;99.90;;;;;;5020013;28;20531;-62
2022/12/24 02:36:51;;;;;;;52.20;13.33;;;11.80;99.90;;;;;;5021363;28;20535;-62
2022/12/24 02:39:24;;;;;;;31.70;7.67;;;11.80;99.90;;;;;;5019365;28;20631;-62
2022/12/24 02:42:08;;;;;;;32.57;11.10;;;11.80;99.90;;;;;;5018325;28;20477;-62
2022/12/24 02:44:41;;;;;;;27.27;9.00;;;11.80;99.90;;;;;;5007550;28;21037;-63
2022/12/24 02:47:10;;;;;;;28.17;7.27;;;;;;;;;;5015432;28;20489;-62
2022/12/24 02:49:37;;;;;;;23.43;7.67;;;11.90;99.90;;;;;;5024030;28;21115;-62
2022/12/24 02:52:05;;;;;;;18.13;5.10;;;11.80;99.90;;;;;;5014981;28;20484;-62
2022/12/24 02:54:32;;;;;;;24.07;6.50;;;11.90;99.90;;;;;;5010236;28;20476;-61
2022/12/24 02:57:13;;;;;;;15.00;6.23;;;11.90;99.90;;;;;;5030007;28;21007;-63
2022/12/24 02:59:57;;;;;;;38.67;11.70;;;11.90;99.90;;;;;;5013479;28;20492;-61
2022/12/24 03:02:33;;;;;;;28.93;7.17;;;12.00;99.90;;;;;;5019532;28;20477;-62
2022/12/24 03:05:13;;;;;;;22.70;8.40;;;11.90;99.90;;;;;;5033695;28;20986;-62
2022/12/24 03:07:45;;;;;;;25.80;6.47;;;11.90;99.90;;;;;;5025892;28;20518;-62
2022/12/24 03:10:20;;;;;;;26.13;8.13;;;11.90;99.90;;;;;;5027241;28;20554;-62
2022/12/24 03:12:50;;;;;;;38.00;12.03;;;12.00;99.90;;;;;;5041158;28;20484;-62
2022/12/24 03:15:20;;;;;;;22.73;8.17;;;12.00;99.90;;;;;;5031639;28;20486;-62
2022/12/24 03:17:49;;;;;;;39.30;9.10;;;12.10;99.90;;;;;;5047098;28;20887;-62
2022/12/24 03:20:20;;;;;;;19.17;7.10;;;12.10;99.90;;;;;;5031621;28;20963;-63
2022/12/24 03:22:47;;;;;;;34.13;11.03;;;12.00;99.90;;;;;;5034243;28;20488;-62
2022/12/24 03:25:14;;;;;;;25.93;7.77;;;12.00;99.90;;;;;;5034573;28;21257;-62
2022/12/24 03:27:41;;;;;;;24.43;8.57;;;11.90;99.90;;;;;;5034315;28;20856;-62
2022/12/24 03:30:11;;;;;;;28.33;9.87;;;12.00;99.90;;;;;;5031728;28;20484;-62
2022/12/24 03:32:38;;;;;;;27.87;8.20;;;12.00;99.90;;;;;;5034779;28;20873;-62
2022/12/24 03:35:07;;;;;;;23.47;6.50;;;12.00;99.90;;;;;;5034731;28;20754;-61
2022/12/24 03:37:34;;;;;;;31.90;7.27;;;12.00;99.90;;;;;;5029852;28;20480;-62
2022/12/24 03:40:01;;;;;;;30.43;9.33;;;11.90;99.90;;;;;;5039577;28;21063;-62
2022/12/24 03:42:28;;;;;;;25.70;8.63;;;12.00;99.90;;;;;;5030711;28;20469;-62
2022/12/24 03:44:55;;;;;;;28.73;8.67;;;;;;;;;;5021838;28;20522;-62
2022/12/24 03:47:22;;;;;;;37.80;10.60;;;12.00;99.90;;;;;;5024605;28;20477;-63
2022/12/24 03:49:49;;;;;;;38.73;11.83;;;12.00;99.90;;;;;;5017770;28;21001;-62
2022/12/24 03:52:17;;;;;;;28.40;8.37;;;11.90;99.90;;;;;;5016918;28;20746;-63
2022/12/24 03:54:43;;;;;;;42.60;12.23;;;11.90;99.90;;;;;;5018167;28;20481;-62
2022/12/24 03:57:10;;;;;;;22.03;6.90;;;11.90;99.90;;;;;;5022317;28;20539;-62
2022/12/24 03:59:37;;;;;;;32.63;10.50;;;11.90;99.90;;;;;;5015516;28;20484;-62
2022/12/24 04:02:03;;;;;;;34.53;8.43;;;11.90;99.90;;;;;;5017998;28;20471;-62
2022/12/24 04:04:32;;;;;;;35.50;8.23;;;11.90;99.90;;;;;;5036079;28;20477;-62
2022/12/24 04:06:59;;;;;;;19.93;6.63;;;11.90;99.90;;;;;;5030314;28;20491;-62
2022/12/24 04:09:27;;;;;;;27.40;9.83;;;11.90;99.90;;;;;;5025905;28;20994;-62
2022/12/24 04:11:54;;;;;;;32.03;9.70;;;11.80;99.90;;;;;;5012542;28;20567;-62
2022/12/24 04:14:21;;;;;;;33.57;8.57;;;;;;;;;;5016341;28;20476;-62
2022/12/24 04:16:47;;;;;;;41.57;10.93;;;11.80;99.90;;;;;;5012838;28;20485;-62
2022/12/24 04:19:14;;;;;;;28.73;8.67;;;11.80;99.90;;;;;;5015090;28;20490;-62
2022/12/24 04:21:40;;;;;;;47.93;13.53;;;11.90;99.90;;;;;;5014398;28;20512;-62
2022/12/24 04:24:07;;;;;;;28.17;8.27;;;11.90;99.90;;;;;;5018660;28;20546;-62
2022/12/24 04:26:35;;;;;;;41.33;8.10;;;11.90;99.90;;;;;;5015633;28;20941;-62
2022/12/24 04:29:02;;;;;;;36.47;9.17;;;11.80;99.90;;;;;;5017011;28;20480;-62
2022/12/24 04:31:29;;;;;;;31.60;9.83;;;11.80;99.90;;;;;;5015467;28;21013;-62
2022/12/24 04:33:55;;;;;;;35.23;9.13;;;11.90;99.90;;;;;;5017256;28;20489;-62
2022/12/24 04:36:24;;;;;;;24.40;7.73;;;11.80;99.90;;;;;;5014597;28;20536;-62
2022/12/24 04:38:50;;;;;;;44.57;12.30;;;11.80;99.90;;;;;;5019237;28;20489;-62
2022/12/24 04:41:19;;;;;;;35.93;11.10;;;11.90;99.90;;;;;;5012009;28;20488;-62
2022/12/24 04:43:47;;;;;;;50.77;10.60;;;11.90;99.90;;;;;;5026394;28;20484;-62
2022/12/24 04:46:17;;;;;;;38.47;7.90;;;11.80;99.90;;;;;;5016770;28;20481;-61
2022/12/24 04:48:44;;;;;;;47.90;11.60;;;11.90;99.90;;;;;;5012496;28;20469;-61
2022/12/24 04:51:13;;;;;;;25.70;8.10;;;11.90;99.90;;;;;;5013799;28;20477;-61
2022/12/24 04:53:40;;;;;;;34.40;10.33;;;11.90;99.90;;;;;;5004764;28;20905;-62
2022/12/24 04:56:09;;;;;;;20.57;5.57;;;11.80;99.90;;;;;;5025045;28;20473;-62
2022/12/24 04:58:35;;;;;;;42.53;9.10;;;11.80;99.90;;;;;;5023838;28;20492;-62
2022/12/24 05:01:05;;;;;;;27.03;8.43;;;11.80;99.90;;;;;;5022181;28;20485;-61
2022/12/24 05:03:32;;;;;;;43.10;7.50;;;11.70;99.90;;;;;;5018744;28;20465;-62
2022/12/24 05:06:01;;;;;;;37.40;8.80;;;11.50;99.90;;;;;;5028973;28;20485;-62
2022/12/24 05:08:28;;;;;;;45.87;9.07;;;11.50;99.90;;;;;;5035685;28;20484;-62
2022/12/24 05:10:56;;;;;;;41.33;8.50;;;11.50;99.90;;;;;;5046241;28;20810;-61
2022/12/24 05:13:23;;;;;;;45.87;7.07;;;11.60;99.90;;;;;;5047388;28;20493;-62
2022/12/24 05:15:50;;;;;;;46.07;12.37;;;11.50;99.90;;;;;;5036807;28;20996;-62
2022/12/24 05:18:18;;;;;;;34.57;8.50;;;11.50;99.90;;;;;;5036456;28;20480;-61
2022/12/24 05:20:46;;;;;;;42.23;10.40;;;11.50;99.90;;;;;;5034953;28;20503;-61
2022/12/24 05:28:44;;;;;;;50.50;12.87;;;11.50;99.90;;;;;;5017590;28;20483;-62
2022/12/24 05:31:11;;;;;;;47.40;7.37;;;11.50;99.90;;;;;;5025240;28;20488;-61
2022/12/24 05:33:39;;;;;;;48.27;11.13;;;11.40;99.90;;;;;;5030176;28;20484;-62
2022/12/24 05:36:07;;;;;;;34.97;9.10;;;11.40;99.90;;;;;;5029016;28;20481;-61
2022/12/24 05:38:33;;;;;;;29.50;6.93;;;11.40;99.90;;;;;;5039067;28;20476;-62
2022/12/24 05:41:00;;;;;;;35.13;6.00;;;11.40;99.90;;;;;;5036252;28;20488;-61
2022/12/24 05:43:27;;;;;;;32.37;10.70;;;11.50;99.90;;;;;;5036615;28;20480;-61
2022/12/24 05:45:58;;;;;;;43.20;9.93;;;11.50;99.90;;;;;;5030575;28;20489;-62
2022/12/24 05:48:25;;;;;;;39.07;8.73;;;11.50;99.90;;;;;;5036224;28;20550;-61
2022/12/24 05:50:53;;;;;;;54.13;12.30;;;11.60;99.90;;;;;;5035056;28;21274;-61
2022/12/24 05:53:20;;;;;;;33.30;7.97;;;11.70;99.90;;;;;;5035953;28;20484;-61
2022/12/24 05:55:47;;;;;;;52.47;11.83;;;11.70;99.90;;;;;;5035636;28;20515;-61
2022/12/24 05:58:14;;;;;;;58.77;10.73;;;11.80;99.90;;;;;;5035115;28;20554;-61
2022/12/24 06:00:42;;;;;;;37.97;7.90;;;11.90;99.90;;;;;;5036849;28;20490;-61
2022/12/24 06:03:09;;;;;;;39.47;10.00;;;11.90;99.90;;;;;;5015279;28;21312;-61
2022/12/24 06:05:36;;;;;;;41.30;10.10;;;11.80;99.90;;;;;;5021456;28;20496;-61
2022/12/24 06:08:04;;;;;;;19.23;7.00;;;11.70;99.90;;;;;;5037645;28;20816;-61
2022/12/24 06:10:34;;;;;;;31.33;8.13;;;11.70;99.90;;;;;;5035444;28;20480;-61
2022/12/24 06:13:01;;;;;;;34.33;6.53;;;11.70;99.90;;;;;;5019350;28;20481;-61
2022/12/24 06:15:27;;;;;;;27.73;7.00;;;11.70;99.90;;;;;;5020922;28;20481;-61
2022/12/24 06:17:54;;;;;;;31.13;8.53;;;11.70;99.90;;;;;;5018662;28;20925;-61
2022/12/24 06:20:21;;;;;;;38.97;8.60;;;11.70;99.90;;;;;;5022309;28;20515;-61
2022/12/24 06:22:48;;;;;;;55.60;12.57;;;11.70;99.90;;;;;;5024038;28;21213;-61
2022/12/24 06:25:16;;;;;;;35.93;8.13;;;14.50;99.90;;;;;;5018652;28;20480;-61
2022/12/24 06:27:42;;;;;;;39.70;9.37;;;11.70;99.90;;;;;;5035885;28;20980;-61
2022/12/24 06:30:10;;;;;;;46.90;9.50;;;11.60;99.90;;;;;;5032018;28;21079;-62
2022/12/24 06:32:37;;;;;;;26.07;7.90;;;11.50;99.90;;;;;;5020445;28;20477;-61
2022/12/24 06:35:04;;;;;;;35.20;6.83;;;11.50;99.90;;;;;;5026328;28;20473;-61
2022/12/24 06:37:30;;;;;;;26.90;6.97;;;11.50;99.90;;;;;;5030807;28;20625;-62
2022/12/24 06:39:57;;;;;;;33.67;8.67;;;11.50;99.90;;;;;;5033482;28;20476;-61
2022/12/24 06:42:25;;;;;;;47.73;11.13;;;11.60;99.90;;;;;;5029352;28;20471;-61
2022/12/24 06:44:52;;;;;;;50.67;11.13;;;11.60;99.90;;;;;;5038522;28;20489;-61
2022/12/24 06:47:18;;;;;;;44.67;10.57;;;11.50;99.90;;;;;;5015505;28;20481;-61
2022/12/24 06:49:45;;;;;;;58.67;13.83;;;11.60;99.90;;;;;;5014880;28;20981;-61
2022/12/24 06:52:12;;;;;;;43.30;10.17;;;11.60;99.90;;;;;;5016094;28;20550;-61
2022/12/24 06:54:39;;;;;;;65.33;14.40;;;11.60;99.90;;;;;;5015698;28;20504;-61
2022/12/24 06:57:06;;;;;;;28.20;7.30;;;11.60;99.90;;;;;;5014548;28;20738;-61
2022/12/24 06:59:34;;;;;;;27.70;7.27;;;11.60;99.90;;;;;;5014631;28;21044;-60
2022/12/24 07:02:01;;;;;;;32.90;9.37;;;11.60;99.90;;;;;;5011945;28;20491;-61
2022/12/24 07:04:28;;;;;;;42.33;8.87;;;11.60;99.90;;;;;;5016528;28;20501;-61
2022/12/24 07:06:56;;;;;;;52.83;11.27;;;11.70;99.90;;;;;;5034923;28;20477;-60
2022/12/24 07:09:23;;;;;;;33.90;7.67;;;11.70;99.90;;;;;;5026038;28;20837;-60
2022/12/24 07:11:50;;;;;;;70.93;16.23;;;11.70;99.90;;;;;;5023869;28;20477;-60
2022/12/24 07:14:16;;;;;;;32.13;7.40;;;11.70;99.90;;;;;;5015037;28;21032;-61
2022/12/24 07:16:44;;;;;;;61.30;14.20;;;11.70;99.90;;;;;;5033235;28;20889;-61
2022/12/24 07:19:11;;;;;;;35.80;8.20;;;11.70;99.90;;;;;;5036949;28;20488;-61
2022/12/24 07:21:38;;;;;;;62.00;15.30;;;11.80;99.90;;;;;;5037419;28;20484;-61
2022/12/24 07:24:05;;;;;;;24.70;7.97;;;11.80;99.90;;;;;;5038493;28;20831;-61
2022/12/24 07:26:31;;;;;;;40.17;8.83;;;11.80;99.90;;;;;;5029164;28;20848;-61
2022/12/24 07:28:58;;;;;;;35.20;8.17;;;11.70;99.90;;;;;;5031497;28;20565;-61
2022/12/24 07:31:25;;;;;;;32.20;8.70;;;11.70;99.90;;;;;;5030589;28;20472;-61
2022/12/24 07:33:53;;;;;;;63.70;13.30;;;11.60;99.90;;;;;;5035166;28;20495;-61
2022/12/24 07:36:21;;;;;;;18.93;5.77;;;11.60;99.90;;;;;;5006426;28;20499;-61
2022/12/24 07:38:48;;;;;;;48.20;11.10;;;11.50;99.90;;;;;;5022406;28;20485;-61
2022/12/24 07:41:15;;;;;;;38.83;10.00;;;11.50;99.90;;;;;;5018939;28;20473;-61
2022/12/24 07:43:42;;;;;;;49.00;9.47;;;11.50;99.90;;;;;;5019743;28;20570;-61
2022/12/24 07:46:09;;;;;;;29.33;7.80;;;11.50;99.90;;;;;;5019809;28;20496;-61
2022/12/24 07:48:35;;;;;;;47.73;8.93;;;11.40;99.90;;;;;;5017866;28;20914;-61
2022/12/24 07:51:04;;;;;;;37.03;10.63;;;11.40;99.90;;;;;;5017368;28;20480;-61
2022/12/24 07:53:31;;;;;;;26.20;7.50;;;11.50;99.90;;;;;;5023244;28;20496;-61
2022/12/24 07:55:58;;;;;;;43.00;7.00;;;11.50;99.90;;;;;;5022405;28;20492;-61
2022/12/24 07:58:25;;;;;;;38.17;10.17;;;11.50;99.90;;;;;;5019961;28;20762;-60
2022/12/24 08:00:56;;;;;;;73.33;14.70;;;11.50;99.90;;;;;;5017022;28;20893;-61
2022/12/24 08:03:23;;;;;;;44.27;7.77;;;11.40;99.90;;;;;;5024676;28;20891;-61
2022/12/24 08:05:52;;;;;;;53.33;13.70;;;11.40;99.90;;;;;;5017171;28;20473;-61
2022/12/24 08:08:20;;;;;;;42.83;10.77;;;11.40;99.90;;;;;;5016082;28;20575;-61
2022/12/24 08:10:47;;;;;;;46.27;10.77;;;11.50;99.90;;;;;;5020520;28;20587;-61
2022/12/24 08:13:14;;;;;;;38.83;8.47;;;11.40;99.90;;;;;;5021435;28;20483;-61
2022/12/24 08:15:41;;;;;;;46.70;11.03;;;11.40;99.90;;;;;;5022908;28;20489;-62
2022/12/24 08:18:08;;;;;;;26.10;7.83;;;11.40;99.90;;;;;;5020352;28;20504;-62
2022/12/24 08:20:37;;;;;;;32.20;10.60;;;11.40;99.90;;;;;;5018449;28;20493;-62
2022/12/24 08:23:04;;;;;;;22.93;6.43;;;11.40;99.90;;;;;;5025501;28;20481;-62
2022/12/24 08:25:32;;;;;;;42.13;9.27;;;11.40;99.90;;;;;;5021078;28;20824;-61
2022/12/24 08:27:59;;;;;;;18.00;6.30;;;11.30;99.90;;;;;;5012911;28;20496;-61
2022/12/24 08:30:26;;;;;;;23.23;7.50;;;11.20;99.90;;;;;;5018016;28;20636;-61
2022/12/24 08:32:53;;;;;;;37.97;8.60;;;11.30;99.90;;;;;;5031900;28;20700;-61
2022/12/24 08:35:20;;;;;;;27.27;9.17;;;11.10;99.90;;;;;;5034769;28;20477;-61
2022/12/24 08:37:46;;;;;;;51.07;14.47;;;11.10;99.90;;;;;;5028573;28;20476;-61
2022/12/24 08:40:14;;;;;;;36.20;9.80;;;11.10;99.90;;;;;;5016309;28;20595;-61
2022/12/24 08:42:42;;;;;;;32.37;10.50;;;11.10;99.90;;;;;;5016034;28;20815;-61
2022/12/24 08:45:10;;;;;;;27.63;8.37;;;11.20;99.90;;;;;;5018260;28;20489;-61
2022/12/24 08:47:37;;;;;;;25.33;7.20;;;11.20;99.90;;;;;;5014495;28;20484;-61
2022/12/24 08:50:04;;;;;;;31.03;10.00;;;11.20;99.90;;;;;;5016629;28;20485;-61
2022/12/24 08:52:31;;;;;;;31.23;9.37;;;11.20;99.90;;;;;;5016107;28;20481;-61
2022/12/24 08:54:58;;;;;;;39.53;7.53;;;11.30;99.90;;;;;;5016700;28;20484;-61
2022/12/24 08:57:24;;;;;;;30.30;9.60;;;11.30;99.90;;;;;;5037055;28;20479;-62
2022/12/24 08:59:53;;;;;;;46.97;10.83;;;11.30;99.90;;;;;;5035967;28;20480;-62
2022/12/24 09:02:20;;;;;;;36.97;10.40;;;11.30;99.90;;;;;;5019670;28;22586;-62
2022/12/24 09:04:46;;;;;;;38.17;11.60;;;11.30;99.90;;;;;;5020483;28;20477;-62
2022/12/24 09:07:13;;;;;;;25.57;7.83;;;11.40;99.90;;;;;;5015966;28;20481;-62
2022/12/24 09:09:40;;;;;;;41.23;9.17;;;11.50;99.90;;;;;;5015854;28;20547;-62
2022/12/24 09:12:08;;;;;;;27.57;9.33;;;11.50;99.90;;;;;;5017861;28;20837;-62
2022/12/24 09:14:35;;;;;;;35.53;8.87;;;11.50;99.90;;;;;;5028282;28;20485;-62
2022/12/24 09:17:03;;;;;;;23.43;6.50;;;11.60;99.90;;;;;;5039802;28;20495;-61
2022/12/24 09:19:30;;;;;;;23.47;7.50;;;11.50;99.90;;;;;;5036793;28;20476;-62
2022/12/24 09:21:57;;;;;;;16.30;5.63;;;11.30;99.90;;;;;;5030101;28;20479;-62
2022/12/24 09:24:23;;;;;;;27.23;9.20;;;14.50;99.90;;;;;;5035168;28;21173;-61
2022/12/24 09:26:50;;;;;;;48.33;12.10;;;11.70;99.90;;;;;;5038995;28;20589;-61
2022/12/24 09:29:17;;;;;;;20.47;7.00;;;11.70;99.90;;;;;;5015220;28;20495;-61
2022/12/24 09:31:43;;;;;;;65.10;11.73;;;11.80;99.90;;;;;;5035773;28;20517;-61
2022/12/24 09:34:11;;;;;;;29.53;8.53;;;11.80;99.90;;;;;;5022466;28;20973;-61
2022/12/24 09:36:38;;;;;;;45.37;10.97;;;11.90;99.90;;;;;;5036184;28;20496;-62
2022/12/24 09:39:05;;;;;;;20.57;6.30;;;11.90;99.90;;;;;;5035955;28;21171;-62
2022/12/24 09:41:44;;;;;;;33.13;6.97;;;11.90;99.90;;;;;;5033897;28;20675;-61
2022/12/24 09:44:22;;;;;;;39.77;8.03;;;12.00;99.90;;;;;;5034196;28;20962;-61
2022/12/24 09:46:50;;;;;;;55.70;10.63;;;12.00;99.90;;;;;;5036525;28;20484;-61
2022/12/24 09:49:22;;;;;;;24.47;6.73;;;12.20;99.90;;;;;;5039240;28;21045;-61
2022/12/24 09:51:52;;;;;;;52.60;11.97;;;12.30;99.90;;;;;;5036512;28;20537;-62
2022/12/24 09:54:24;;;;;;;33.20;9.03;;;12.40;99.90;;;;;;5036250;28;20503;-61
2022/12/24 09:56:51;;;;;;;54.13;14.00;;;12.50;99.90;;;;;;5033534;28;20857;-61
2022/12/24 09:59:22;;;;;;;53.70;10.80;;;12.50;99.90;;;;;;5036184;28;21064;-61
2022/12/24 10:01:50;;;;;;;51.43;12.47;;;12.60;99.90;;;;;;5032882;28;21027;-62
2022/12/24 10:04:20;;;;;;;29.30;7.90;;;12.60;99.90;;;;;;5037346;28;20506;-61
2022/12/24 10:06:54;;;;;;;50.93;12.17;;;12.60;99.90;;;;;;5037085;28;20519;-62
2022/12/24 10:09:29;;;;;;;24.53;7.60;;;12.60;99.90;;;;;;5030813;28;20795;-61
2022/12/24 10:12:03;;;;;;;36.90;10.83;;;12.70;99.90;;;;;;5033551;28;20891;-61
2022/12/24 10:14:46;;;;;;;32.20;9.53;;;12.60;99.90;;;;;;5034973;28;20487;-62
2022/12/24 10:17:35;;;;;;;32.70;7.53;;;12.70;99.90;;;;;;5015802;28;20516;-61
2022/12/24 10:20:22;;;;;;;35.57;9.17;;;12.70;99.90;;;;;;5015881;28;20476;-61
2022/12/24 10:22:56;;;;;;;40.43;12.50;;;12.70;99.90;;;;;;5020711;28;20512;-61
2022/12/24 10:25:28;;;;;;;27.13;6.57;;;12.60;99.90;;;;;;5035118;28;20483;-61
2022/12/24 10:27:57;;;;;;;57.33;11.93;;;12.60;99.90;;;;;;5014364;28;20488;-61
2022/12/24 10:30:24;;;;;;;30.17;6.97;;;12.70;99.90;;;;;;5013962;28;20486;-62
2022/12/24 10:32:53;;;;;;;64.60;13.97;;;12.70;99.90;;;;;;5014588;28;20481;-62
2022/12/24 10:35:25;;;;;;;34.23;8.97;;;12.70;99.90;;;;;;5014982;28;20481;-61
2022/12/24 10:37:52;;;;;;;45.60;11.60;;;12.80;99.90;;;;;;5009906;28;20496;-62
2022/12/24 10:40:31;;;;;;;39.13;10.00;;;12.90;99.90;;;;;;5022452;28;20977;-61
2022/12/24 10:42:58;;;;;;;48.37;8.87;;;12.90;99.90;;;;;;5024118;28;20507;-61
2022/12/24 10:45:37;;;;;;;31.03;7.70;;;13.00;99.90;;;;;;5020668;28;20484;-62
2022/12/24 10:48:11;;;;;;;28.03;8.60;;;13.00;99.90;;;;;;5041844;28;20547;-61
2022/12/24 10:50:45;;;;;;;48.37;10.87;;;13.00;99.90;;;;;;5030375;28;20545;-61
2022/12/24 10:53:17;;;;;;;35.70;8.73;;;13.10;99.90;;;;;;5036129;28;20476;-61
2022/12/24 10:55:44;;;;;;;59.37;13.77;;;13.00;99.90;;;;;;5034206;28;20498;-61
2022/12/24 10:58:16;;;;;;;33.50;8.30;;;12.90;99.90;;;;;;5033831;28;20505;-62
2022/12/24 11:00:50;;;;;;;69.73;11.20;;;12.90;99.90;;;;;;5020774;28;20771;-62
2022/12/24 11:03:28;;;;;;;41.57;10.40;;;12.90;99.90;;;;;;5017690;28;20672;-62
2022/12/24 11:06:11;;;;;;;49.10;13.13;;;12.70;99.90;;;;;;5029825;28;20859;-62
2022/12/24 11:08:40;;;;;;;45.37;10.50;;;12.60;99.90;;;;;;5017873;28;20480;-61
2022/12/24 11:11:09;;;;;;;24.47;8.13;;;12.70;99.90;;;;;;5021719;28;20965;-61
2022/12/24 11:13:39;;;;;;;29.90;9.43;;;12.70;99.90;;;;;;5017692;28;21020;-61
2022/12/24 11:16:10;;;;;;;33.40;8.10;;;12.60;99.90;;;;;;5022587;28;20823;-61
2022/12/24 11:18:45;;;;;;;57.03;10.57;;;12.50;99.90;;;;;;5020680;28;20710;-62
2022/12/24 11:21:24;;;;;;;25.10;6.23;;;12.50;99.90;;;;;;5022714;28;20472;-62
2022/12/24 11:23:54;;;;;;;60.67;12.70;;;12.50;99.90;;;;;;5022813;28;21125;-61
2022/12/24 11:26:23;;;;;;;40.53;11.43;;;12.40;99.90;;;;;;5032287;28;20487;-62
2022/12/24 11:29:10;;;;;;;59.33;14.20;;;12.40;99.90;;;;;;5029284;28;20591;-62
2022/12/24 11:31:37;;;;;;;49.73;10.37;;;12.40;99.90;;;;;;5019439;28;20472;-61
2022/12/24 11:34:27;;;;;;;30.93;10.00;;;12.40;99.90;;;;;;5037862;28;20534;-61
2022/12/24 11:37:09;;;;;;;46.73;11.20;;;12.40;99.90;;;;;;5035919;28;20635;-61
2022/12/24 11:39:40;;;;;;;57.03;11.53;;;12.10;99.90;;;;;;5038430;28;20491;-61
2022/12/24 11:42:07;;;;;;;31.43;7.37;;;12.20;99.90;;;;;;5028648;28;20521;-62
2022/12/24 11:44:34;;;;;;;31.97;9.70;;;12.20;99.90;;;;;;5017561;28;20480;-61
2022/12/24 11:47:01;;;;;;;33.40;9.20;;;12.20;99.90;;;;;;5021166;28;20555;-62
2022/12/24 11:49:30;;;;;;;48.80;12.63;;;12.20;99.90;;;;;;5019582;28;20488;-61
2022/12/24 11:52:21;;;;;;;51.10;11.20;;;12.10;99.90;;;;;;5024194;28;20476;-62
2022/12/24 11:55:05;;;;;;;66.23;14.67;;;12.10;99.90;;;;;;5013969;28;20480;-61
2022/12/24 11:57:41;;;;;;;35.60;9.37;;;12.20;99.90;;;;;;5025130;28;20487;-61
2022/12/24 12:00:10;;;;;;;45.10;12.60;;;12.30;99.90;;;;;;5025935;28;20475;-61
2022/12/24 12:02:41;;;;;;;36.17;8.57;;;12.30;99.90;;;;;;5035490;28;20488;-61
2022/12/24 12:05:12;;;;;;;43.30;10.60;;;12.40;99.90;;;;;;5033232;28;20911;-62
2022/12/24 12:07:42;;;;;;;50.80;11.23;;;12.40;99.90;;;;;;5015196;28;20545;-62
2022/12/24 12:10:17;;;;;;;43.33;13.53;;;12.50;99.90;;;;;;5028966;28;20479;-61
2022/12/24 12:12:47;;;;;;;65.37;14.10;;;12.50;99.90;;;;;;5028350;28;20511;-61
2022/12/24 12:15:17;;;;;;;30.57;7.40;;;12.50;99.90;;;;;;5027492;28;20484;-62
2022/12/24 12:17:49;;;;;;;61.43;13.47;;;12.40;99.90;;;;;;5020188;28;20961;-62
2022/12/24 12:20:21;;;;;;;44.70;11.10;;;12.40;99.90;;;;;;5017580;28;20489;-61
2022/12/24 12:22:56;;;;;;;41.23;12.30;;;12.40;99.90;;;;;;5033022;28;20821;-61
2022/12/24 12:25:28;;;;;;;37.67;9.80;;;12.40;99.90;;;;;;5029049;28;21011;-62
2022/12/24 12:27:57;;;;;;;67.43;11.70;;;12.50;99.90;;;;;;5021416;28;20488;-62
2022/12/24 12:30:26;;;;;;;30.53;8.13;;;12.40;99.90;;;;;;5019362;28;20481;-61
2022/12/24 12:32:59;;;;;;;39.07;10.80;;;12.40;99.90;;;;;;5018789;28;20484;-62
2022/12/24 12:35:29;;;;;;;24.20;6.53;;;12.40;99.90;;;;;;5019405;28;20485;-62
2022/12/24 12:38:00;;;;;;;36.97;10.57;;;12.50;99.90;;;;;;5019003;28;20883;-61
2022/12/24 12:40:43;;;;;;;34.80;8.60;;;12.60;99.90;;;;;;5019159;28;20531;-62
2022/12/24 12:43:20;;;;;;;24.73;7.73;;;12.60;99.90;;;;;;5020740;28;20481;-62
2022/12/24 12:45:52;;;;;;;38.00;10.20;;;;;;;;;;5013807;28;20477;-61
2022/12/24 12:48:39;;;;;;;41.17;9.73;;;12.50;99.90;;;;;;5020230;28;20481;-62
2022/12/24 12:51:09;;;;;;;26.07;6.20;;;12.70;99.90;;;;;;5020544;28;20477;-62
2022/12/24 12:53:52;;;;;;;21.93;7.37;;;12.70;99.90;;;;;;5018778;28;20535;-62
2022/12/24 12:56:27;;;;;;;37.23;9.10;;;12.70;99.90;;;;;;5010265;28;20485;-62